sensor_id;sensor_type;location;lat;lon;timestamp;P1;durP1;ratioP1;P2;durP2;ratioP2
1000;SDS011;489;47.806;12.858;2024-03-08T00:01:39;13.40;;;8.37;;
1000;SDS011;489;47.806;12.858;2024-03-08T00:03:42;11.83;;;8.17;;
1000;SDS011;489;47.806;12.858;2024-03-08T00:05:44;13.07;;;8.80;;
1000;SDS011;489;47.806;12.858;2024-03-08T00:07:46;14.37;;;9.13;;
1000;SDS011;489;47.806;12.858;2024-03-08T00:09:47;14.77;;;9.60;;
1000;SDS011;489;47.806;12.858;2024-03-08T00:11:50;14.87;;;9.20;;
1000;SDS011;489;47.806;12.858;2024-03-08T00:13:52;13.07;;;8.60;;
1000;SDS011;489;47.806;12.858;2024-03-08T00:15:54;13.23;;;8.90;;
1000;SDS011;489;47.806;12.858;2024-03-08T00:17:58;13.60;;;9.90;;
1000;SDS011;489;47.806;12.858;2024-03-08T00:19:59;13.60;;;9.00;;
1000;SDS011;489;47.806;12.858;2024-03-08T00:22:04;16.03;;;9.53;;
1000;SDS011;489;47.806;12.858;2024-03-08T00:24:06;19.60;;;9.70;;
1000;SDS011;489;47.806;12.858;2024-03-08T00:26:08;12.77;;;8.70;;
1000;SDS011;489;47.806;12.858;2024-03-08T00:28:12;15.03;;;9.30;;
1000;SDS011;489;47.806;12.858;2024-03-08T00:30:15;15.10;;;8.70;;
1000;SDS011;489;47.806;12.858;2024-03-08T00:32:17;12.43;;;7.93;;
1000;SDS011;489;47.806;12.858;2024-03-08T00:34:19;13.37;;;8.63;;
1000;SDS011;489;47.806;12.858;2024-03-08T00:36:21;12.93;;;8.27;;
1000;SDS011;489;47.806;12.858;2024-03-08T00:38:22;13.93;;;8.87;;
1000;SDS011;489;47.806;12.858;2024-03-08T00:40:23;13.00;;;8.60;;
1000;SDS011;489;47.806;12.858;2024-03-08T00:42:25;15.60;;;9.00;;
1000;SDS011;489;47.806;12.858;2024-03-08T00:44:29;14.83;;;9.00;;
1000;SDS011;489;47.806;12.858;2024-03-08T00:46:30;13.70;;;8.90;;
1000;SDS011;489;47.806;12.858;2024-03-08T00:48:32;14.17;;;8.07;;
1000;SDS011;489;47.806;12.858;2024-03-08T00:50:35;16.10;;;8.80;;
1000;SDS011;489;47.806;12.858;2024-03-08T00:52:37;13.10;;;8.17;;
1000;SDS011;489;47.806;12.858;2024-03-08T00:54:38;13.63;;;8.47;;
1000;SDS011;489;47.806;12.858;2024-03-08T00:56:39;14.50;;;9.23;;
1000;SDS011;489;47.806;12.858;2024-03-08T00:58:41;13.50;;;8.30;;
1000;SDS011;489;47.806;12.858;2024-03-08T01:00:44;12.60;;;8.77;;
1000;SDS011;489;47.806;12.858;2024-03-08T01:02:46;14.20;;;8.60;;
1000;SDS011;489;47.806;12.858;2024-03-08T01:04:48;16.23;;;8.73;;
1000;SDS011;489;47.806;12.858;2024-03-08T01:06:51;14.73;;;8.43;;
1000;SDS011;489;47.806;12.858;2024-03-08T01:08:53;13.43;;;8.97;;
1000;SDS011;489;47.806;12.858;2024-03-08T01:10:55;14.13;;;8.10;;
1000;SDS011;489;47.806;12.858;2024-03-08T01:12:57;14.60;;;8.83;;
1000;SDS011;489;47.806;12.858;2024-03-08T01:14:59;13.43;;;7.73;;
1000;SDS011;489;47.806;12.858;2024-03-08T01:17:02;12.43;;;8.07;;
1000;SDS011;489;47.806;12.858;2024-03-08T01:19:04;15.27;;;8.50;;
1000;SDS011;489;47.806;12.858;2024-03-08T01:21:06;14.80;;;8.50;;
1000;SDS011;489;47.806;12.858;2024-03-08T01:23:08;13.50;;;7.90;;
1000;SDS011;489;47.806;12.858;2024-03-08T01:25:09;11.83;;;8.37;;
1000;SDS011;489;47.806;12.858;2024-03-08T01:27:11;15.20;;;9.00;;
1000;SDS011;489;47.806;12.858;2024-03-08T01:29:13;13.63;;;7.47;;
1000;SDS011;489;47.806;12.858;2024-03-08T01:31:15;14.33;;;8.70;;
1000;SDS011;489;47.806;12.858;2024-03-08T01:33:18;14.70;;;8.57;;
1000;SDS011;489;47.806;12.858;2024-03-08T01:35:23;13.07;;;9.17;;
1000;SDS011;489;47.806;12.858;2024-03-08T01:37:26;12.40;;;8.70;;
1000;SDS011;489;47.806;12.858;2024-03-08T01:39:30;14.20;;;8.27;;
1000;SDS011;489;47.806;12.858;2024-03-08T01:41:32;13.17;;;8.27;;
1000;SDS011;489;47.806;12.858;2024-03-08T01:43:33;11.83;;;8.50;;
1000;SDS011;489;47.806;12.858;2024-03-08T01:45:35;11.03;;;7.73;;
1000;SDS011;489;47.806;12.858;2024-03-08T01:47:36;11.90;;;7.73;;
1000;SDS011;489;47.806;12.858;2024-03-08T01:49:40;12.57;;;8.37;;
1000;SDS011;489;47.806;12.858;2024-03-08T01:51:42;12.47;;;7.60;;
1000;SDS011;489;47.806;12.858;2024-03-08T01:53:44;11.87;;;7.60;;
1000;SDS011;489;47.806;12.858;2024-03-08T01:55:47;11.93;;;7.77;;
1000;SDS011;489;47.806;12.858;2024-03-08T01:57:48;14.50;;;8.60;;
1000;SDS011;489;47.806;12.858;2024-03-08T01:59:50;13.30;;;8.40;;
1000;SDS011;489;47.806;12.858;2024-03-08T02:01:54;13.40;;;9.03;;
1000;SDS011;489;47.806;12.858;2024-03-08T02:03:57;15.00;;;8.30;;
1000;SDS011;489;47.806;12.858;2024-03-08T02:06:00;15.63;;;8.90;;
1000;SDS011;489;47.806;12.858;2024-03-08T02:08:02;12.37;;;8.07;;
1000;SDS011;489;47.806;12.858;2024-03-08T02:10:04;15.00;;;8.63;;
1000;SDS011;489;47.806;12.858;2024-03-08T02:12:07;14.30;;;8.73;;
1000;SDS011;489;47.806;12.858;2024-03-08T02:14:11;15.03;;;8.67;;
1000;SDS011;489;47.806;12.858;2024-03-08T02:16:19;13.87;;;8.27;;
1000;SDS011;489;47.806;12.858;2024-03-08T02:18:21;15.23;;;8.20;;
1000;SDS011;489;47.806;12.858;2024-03-08T02:20:24;13.23;;;8.23;;
1000;SDS011;489;47.806;12.858;2024-03-08T02:22:26;14.30;;;9.10;;
1000;SDS011;489;47.806;12.858;2024-03-08T02:24:29;15.00;;;8.97;;
1000;SDS011;489;47.806;12.858;2024-03-08T02:26:31;15.97;;;8.80;;
1000;SDS011;489;47.806;12.858;2024-03-08T02:28:32;12.50;;;7.90;;
1000;SDS011;489;47.806;12.858;2024-03-08T02:30:34;14.13;;;8.57;;
1000;SDS011;489;47.806;12.858;2024-03-08T02:32:36;13.80;;;8.60;;
1000;SDS011;489;47.806;12.858;2024-03-08T02:34:38;15.50;;;8.47;;
1000;SDS011;489;47.806;12.858;2024-03-08T02:36:39;12.90;;;8.10;;
1000;SDS011;489;47.806;12.858;2024-03-08T02:38:43;15.17;;;8.67;;
1000;SDS011;489;47.806;12.858;2024-03-08T02:40:45;15.97;;;8.80;;
1000;SDS011;489;47.806;12.858;2024-03-08T02:42:48;11.47;;;7.87;;
1000;SDS011;489;47.806;12.858;2024-03-08T02:44:50;13.67;;;8.80;;
1000;SDS011;489;47.806;12.858;2024-03-08T02:46:52;15.00;;;8.73;;
1000;SDS011;489;47.806;12.858;2024-03-08T02:48:55;15.33;;;8.70;;
1000;SDS011;489;47.806;12.858;2024-03-08T02:50:57;11.70;;;8.00;;
1000;SDS011;489;47.806;12.858;2024-03-08T02:52:59;13.90;;;8.30;;
1000;SDS011;489;47.806;12.858;2024-03-08T02:55:02;13.37;;;8.97;;
1000;SDS011;489;47.806;12.858;2024-03-08T02:57:06;15.50;;;8.97;;
1000;SDS011;489;47.806;12.858;2024-03-08T02:59:08;15.90;;;8.30;;
1000;SDS011;489;47.806;12.858;2024-03-08T03:01:10;12.57;;;8.20;;
1000;SDS011;489;47.806;12.858;2024-03-08T03:03:12;13.93;;;8.27;;
1000;SDS011;489;47.806;12.858;2024-03-08T03:05:14;13.67;;;7.90;;
1000;SDS011;489;47.806;12.858;2024-03-08T03:07:16;13.20;;;7.30;;
1000;SDS011;489;47.806;12.858;2024-03-08T03:09:18;15.83;;;8.90;;
1000;SDS011;489;47.806;12.858;2024-03-08T03:11:25;12.53;;;7.80;;
1000;SDS011;489;47.806;12.858;2024-03-08T03:13:27;11.03;;;7.73;;
1000;SDS011;489;47.806;12.858;2024-03-08T03:15:30;12.77;;;7.40;;
1000;SDS011;489;47.806;12.858;2024-03-08T03:17:31;13.47;;;8.17;;
1000;SDS011;489;47.806;12.858;2024-03-08T03:19:35;16.20;;;8.47;;
1000;SDS011;489;47.806;12.858;2024-03-08T03:21:37;12.20;;;7.83;;
1000;SDS011;489;47.806;12.858;2024-03-08T03:23:39;12.80;;;8.10;;
1000;SDS011;489;47.806;12.858;2024-03-08T03:25:42;12.73;;;7.60;;
1000;SDS011;489;47.806;12.858;2024-03-08T03:27:47;13.93;;;8.17;;
1000;SDS011;489;47.806;12.858;2024-03-08T03:29:50;13.30;;;7.80;;
1000;SDS011;489;47.806;12.858;2024-03-08T03:31:52;15.30;;;8.67;;
1000;SDS011;489;47.806;12.858;2024-03-08T03:33:54;13.27;;;7.20;;
1000;SDS011;489;47.806;12.858;2024-03-08T03:36:01;13.50;;;7.83;;
1000;SDS011;489;47.806;12.858;2024-03-08T03:38:03;12.17;;;7.90;;
1000;SDS011;489;47.806;12.858;2024-03-08T03:40:08;13.80;;;8.27;;
1000;SDS011;489;47.806;12.858;2024-03-08T03:42:10;15.00;;;8.70;;
1000;SDS011;489;47.806;12.858;2024-03-08T03:44:14;14.60;;;8.60;;
1000;SDS011;489;47.806;12.858;2024-03-08T03:46:16;13.87;;;8.33;;
1000;SDS011;489;47.806;12.858;2024-03-08T03:48:17;10.57;;;7.30;;
1000;SDS011;489;47.806;12.858;2024-03-08T03:50:19;14.30;;;8.57;;
1000;SDS011;489;47.806;12.858;2024-03-08T03:52:21;13.70;;;8.17;;
1000;SDS011;489;47.806;12.858;2024-03-08T03:54:23;14.03;;;8.93;;
1000;SDS011;489;47.806;12.858;2024-03-08T03:56:25;12.10;;;8.27;;
1000;SDS011;489;47.806;12.858;2024-03-08T03:58:27;16.07;;;8.97;;
1000;SDS011;489;47.806;12.858;2024-03-08T04:00:31;13.63;;;8.20;;
1000;SDS011;489;47.806;12.858;2024-03-08T04:02:33;15.40;;;9.30;;
1000;SDS011;489;47.806;12.858;2024-03-08T04:04:35;12.80;;;7.70;;
1000;SDS011;489;47.806;12.858;2024-03-08T04:06:37;14.33;;;8.73;;
1000;SDS011;489;47.806;12.858;2024-03-08T04:08:39;14.73;;;8.50;;
1000;SDS011;489;47.806;12.858;2024-03-08T04:10:41;14.53;;;8.50;;
1000;SDS011;489;47.806;12.858;2024-03-08T04:12:43;12.43;;;8.20;;
1000;SDS011;489;47.806;12.858;2024-03-08T04:14:45;18.53;;;7.73;;
1000;SDS011;489;47.806;12.858;2024-03-08T04:16:48;12.50;;;8.07;;
1000;SDS011;489;47.806;12.858;2024-03-08T04:18:50;13.27;;;8.40;;
1000;SDS011;489;47.806;12.858;2024-03-08T04:20:52;14.93;;;8.83;;
1000;SDS011;489;47.806;12.858;2024-03-08T04:22:54;15.60;;;8.40;;
1000;SDS011;489;47.806;12.858;2024-03-08T04:24:56;14.27;;;7.90;;
1000;SDS011;489;47.806;12.858;2024-03-08T04:26:58;13.50;;;8.70;;
1000;SDS011;489;47.806;12.858;2024-03-08T04:29:00;13.87;;;8.33;;
1000;SDS011;489;47.806;12.858;2024-03-08T04:31:02;15.80;;;8.43;;
1000;SDS011;489;47.806;12.858;2024-03-08T04:33:06;15.13;;;9.20;;
1000;SDS011;489;47.806;12.858;2024-03-08T04:35:07;17.13;;;8.53;;
1000;SDS011;489;47.806;12.858;2024-03-08T04:37:09;15.37;;;8.30;;
1000;SDS011;489;47.806;12.858;2024-03-08T04:39:13;17.23;;;10.03;;
1000;SDS011;489;47.806;12.858;2024-03-08T04:41:16;14.77;;;8.70;;
1000;SDS011;489;47.806;12.858;2024-03-08T04:43:18;15.07;;;9.10;;
1000;SDS011;489;47.806;12.858;2024-03-08T04:45:21;15.60;;;9.87;;
1000;SDS011;489;47.806;12.858;2024-03-08T04:47:23;14.47;;;8.77;;
1000;SDS011;489;47.806;12.858;2024-03-08T04:49:26;16.60;;;9.77;;
1000;SDS011;489;47.806;12.858;2024-03-08T04:51:29;15.37;;;8.90;;
1000;SDS011;489;47.806;12.858;2024-03-08T04:53:31;17.37;;;9.47;;
1000;SDS011;489;47.806;12.858;2024-03-08T04:55:35;14.87;;;9.07;;
1000;SDS011;489;47.806;12.858;2024-03-08T04:57:37;15.80;;;9.37;;
1000;SDS011;489;47.806;12.858;2024-03-08T04:59:39;18.00;;;9.33;;
1000;SDS011;489;47.806;12.858;2024-03-08T05:01:41;14.37;;;8.70;;
1000;SDS011;489;47.806;12.858;2024-03-08T05:03:43;15.60;;;9.07;;
1000;SDS011;489;47.806;12.858;2024-03-08T05:05:47;13.80;;;8.47;;
1000;SDS011;489;47.806;12.858;2024-03-08T05:07:49;19.93;;;9.70;;
1000;SDS011;489;47.806;12.858;2024-03-08T05:09:51;18.90;;;10.23;;
1000;SDS011;489;47.806;12.858;2024-03-08T05:11:53;15.10;;;8.80;;
1000;SDS011;489;47.806;12.858;2024-03-08T05:13:55;15.70;;;9.20;;
1000;SDS011;489;47.806;12.858;2024-03-08T05:15:59;17.60;;;9.30;;
1000;SDS011;489;47.806;12.858;2024-03-08T05:18:01;16.37;;;9.87;;
1000;SDS011;489;47.806;12.858;2024-03-08T05:20:03;14.50;;;8.70;;
1000;SDS011;489;47.806;12.858;2024-03-08T05:22:09;12.73;;;8.37;;
1000;SDS011;489;47.806;12.858;2024-03-08T05:24:11;15.27;;;8.73;;
1000;SDS011;489;47.806;12.858;2024-03-08T05:26:13;16.97;;;8.30;;
1000;SDS011;489;47.806;12.858;2024-03-08T05:28:16;13.03;;;9.27;;
1000;SDS011;489;47.806;12.858;2024-03-08T05:30:18;15.70;;;8.60;;
1000;SDS011;489;47.806;12.858;2024-03-08T05:32:21;15.37;;;9.67;;
1000;SDS011;489;47.806;12.858;2024-03-08T05:34:25;12.40;;;8.27;;
1000;SDS011;489;47.806;12.858;2024-03-08T05:36:28;11.73;;;8.10;;
1000;SDS011;489;47.806;12.858;2024-03-08T05:38:34;15.47;;;8.67;;
1000;SDS011;489;47.806;12.858;2024-03-08T05:40:36;15.37;;;8.90;;
1000;SDS011;489;47.806;12.858;2024-03-08T05:42:38;15.10;;;9.53;;
1000;SDS011;489;47.806;12.858;2024-03-08T05:44:40;15.93;;;9.47;;
1000;SDS011;489;47.806;12.858;2024-03-08T05:46:44;20.00;;;10.70;;
1000;SDS011;489;47.806;12.858;2024-03-08T05:48:46;14.50;;;9.03;;
1000;SDS011;489;47.806;12.858;2024-03-08T05:50:49;16.60;;;9.50;;
1000;SDS011;489;47.806;12.858;2024-03-08T05:52:50;15.00;;;9.43;;
1000;SDS011;489;47.806;12.858;2024-03-08T05:54:55;16.93;;;9.73;;
1000;SDS011;489;47.806;12.858;2024-03-08T05:56:58;16.13;;;8.40;;
1000;SDS011;489;47.806;12.858;2024-03-08T05:59:00;17.07;;;9.73;;
1000;SDS011;489;47.806;12.858;2024-03-08T06:01:02;17.70;;;9.80;;
1000;SDS011;489;47.806;12.858;2024-03-08T06:03:08;14.50;;;9.27;;
1000;SDS011;489;47.806;12.858;2024-03-08T06:05:09;16.47;;;9.27;;
1000;SDS011;489;47.806;12.858;2024-03-08T06:07:11;13.60;;;8.30;;
1000;SDS011;489;47.806;12.858;2024-03-08T06:09:13;14.50;;;8.30;;
1000;SDS011;489;47.806;12.858;2024-03-08T06:11:24;12.53;;;8.50;;
1000;SDS011;489;47.806;12.858;2024-03-08T06:13:27;14.10;;;8.10;;
1000;SDS011;489;47.806;12.858;2024-03-08T06:15:31;13.83;;;8.80;;
1000;SDS011;489;47.806;12.858;2024-03-08T06:17:35;14.23;;;8.83;;
1000;SDS011;489;47.806;12.858;2024-03-08T06:19:37;16.00;;;8.77;;
1000;SDS011;489;47.806;12.858;2024-03-08T06:21:39;17.67;;;9.40;;
1000;SDS011;489;47.806;12.858;2024-03-08T06:23:42;15.07;;;8.90;;
1000;SDS011;489;47.806;12.858;2024-03-08T06:25:43;15.30;;;9.10;;
1000;SDS011;489;47.806;12.858;2024-03-08T06:27:46;16.23;;;8.93;;
1000;SDS011;489;47.806;12.858;2024-03-08T06:29:48;15.00;;;8.70;;
1000;SDS011;489;47.806;12.858;2024-03-08T06:31:49;17.10;;;9.43;;
1000;SDS011;489;47.806;12.858;2024-03-08T06:33:51;15.20;;;9.10;;
1000;SDS011;489;47.806;12.858;2024-03-08T06:35:54;12.20;;;8.00;;
1000;SDS011;489;47.806;12.858;2024-03-08T06:37:57;14.50;;;8.70;;
1000;SDS011;489;47.806;12.858;2024-03-08T06:39:59;14.40;;;9.20;;
1000;SDS011;489;47.806;12.858;2024-03-08T06:42:02;15.63;;;9.00;;
1000;SDS011;489;47.806;12.858;2024-03-08T06:44:06;14.37;;;9.43;;
1000;SDS011;489;47.806;12.858;2024-03-08T06:46:10;13.90;;;9.07;;
1000;SDS011;489;47.806;12.858;2024-03-08T06:48:13;15.43;;;8.23;;
1000;SDS011;489;47.806;12.858;2024-03-08T06:50:17;14.17;;;8.77;;
1000;SDS011;489;47.806;12.858;2024-03-08T06:52:19;17.53;;;9.90;;
1000;SDS011;489;47.806;12.858;2024-03-08T06:54:22;16.47;;;9.60;;
1000;SDS011;489;47.806;12.858;2024-03-08T06:56:25;18.33;;;10.70;;
1000;SDS011;489;47.806;12.858;2024-03-08T06:58:26;15.10;;;10.40;;
1000;SDS011;489;47.806;12.858;2024-03-08T07:00:30;19.10;;;10.33;;
1000;SDS011;489;47.806;12.858;2024-03-08T07:02:32;18.00;;;10.57;;
1000;SDS011;489;47.806;12.858;2024-03-08T07:04:34;19.83;;;11.67;;
1000;SDS011;489;47.806;12.858;2024-03-08T07:06:38;16.97;;;9.97;;
1000;SDS011;489;47.806;12.858;2024-03-08T07:08:42;16.23;;;11.50;;
1000;SDS011;489;47.806;12.858;2024-03-08T07:10:46;18.37;;;10.30;;
1000;SDS011;489;47.806;12.858;2024-03-08T07:12:49;18.17;;;10.63;;
1000;SDS011;489;47.806;12.858;2024-03-08T07:14:55;16.63;;;9.67;;
1000;SDS011;489;47.806;12.858;2024-03-08T07:16:58;16.10;;;11.17;;
1000;SDS011;489;47.806;12.858;2024-03-08T07:18:59;18.10;;;11.57;;
1000;SDS011;489;47.806;12.858;2024-03-08T07:21:01;16.17;;;10.47;;
1000;SDS011;489;47.806;12.858;2024-03-08T07:23:04;17.30;;;9.50;;
1000;SDS011;489;47.806;12.858;2024-03-08T07:25:06;19.67;;;10.67;;
1000;SDS011;489;47.806;12.858;2024-03-08T07:27:19;12.80;;;8.67;;
1000;SDS011;489;47.806;12.858;2024-03-08T07:29:43;18.17;;;10.00;;
1000;SDS011;489;47.806;12.858;2024-03-08T07:31:45;17.90;;;10.00;;
1000;SDS011;489;47.806;12.858;2024-03-08T07:33:57;14.97;;;9.20;;
1000;SDS011;489;47.806;12.858;2024-03-08T07:35:59;15.73;;;9.50;;
1000;SDS011;489;47.806;12.858;2024-03-08T07:38:01;17.47;;;9.80;;
1000;SDS011;489;47.806;12.858;2024-03-08T07:40:03;16.00;;;9.43;;
1000;SDS011;489;47.806;12.858;2024-03-08T07:42:06;14.87;;;9.40;;
1000;SDS011;489;47.806;12.858;2024-03-08T07:44:08;15.40;;;9.93;;
1000;SDS011;489;47.806;12.858;2024-03-08T07:46:10;16.43;;;9.33;;
1000;SDS011;489;47.806;12.858;2024-03-08T07:48:13;15.00;;;9.57;;
1000;SDS011;489;47.806;12.858;2024-03-08T07:50:18;13.53;;;8.80;;
1000;SDS011;489;47.806;12.858;2024-03-08T07:52:19;14.40;;;8.80;;
1000;SDS011;489;47.806;12.858;2024-03-08T07:54:21;16.40;;;9.07;;
1000;SDS011;489;47.806;12.858;2024-03-08T07:56:23;16.83;;;9.30;;
1000;SDS011;489;47.806;12.858;2024-03-08T07:58:25;12.00;;;7.83;;
1000;SDS011;489;47.806;12.858;2024-03-08T08:00:27;15.57;;;8.50;;
1000;SDS011;489;47.806;12.858;2024-03-08T08:02:29;12.43;;;8.40;;
1000;SDS011;489;47.806;12.858;2024-03-08T08:04:31;12.90;;;8.13;;
1000;SDS011;489;47.806;12.858;2024-03-08T08:06:34;11.50;;;7.63;;
1000;SDS011;489;47.806;12.858;2024-03-08T08:08:37;14.17;;;9.20;;
1000;SDS011;489;47.806;12.858;2024-03-08T08:10:39;13.83;;;8.30;;
1000;SDS011;489;47.806;12.858;2024-03-08T08:12:40;13.73;;;8.60;;
1000;SDS011;489;47.806;12.858;2024-03-08T08:14:43;14.17;;;8.87;;
1000;SDS011;489;47.806;12.858;2024-03-08T08:16:45;12.10;;;8.70;;
1000;SDS011;489;47.806;12.858;2024-03-08T08:18:48;13.07;;;7.80;;
1000;SDS011;489;47.806;12.858;2024-03-08T08:20:50;12.83;;;7.47;;
1000;SDS011;489;47.806;12.858;2024-03-08T08:22:54;14.23;;;8.03;;
1000;SDS011;489;47.806;12.858;2024-03-08T08:24:55;13.00;;;8.10;;
1000;SDS011;489;47.806;12.858;2024-03-08T08:26:57;13.17;;;8.20;;
1000;SDS011;489;47.806;12.858;2024-03-08T08:28:59;12.67;;;7.83;;
1000;SDS011;489;47.806;12.858;2024-03-08T08:31:01;10.93;;;7.37;;
1000;SDS011;489;47.806;12.858;2024-03-08T08:33:04;13.83;;;8.60;;
1000;SDS011;489;47.806;12.858;2024-03-08T08:35:06;10.70;;;7.70;;
1000;SDS011;489;47.806;12.858;2024-03-08T08:37:12;13.00;;;7.80;;
1000;SDS011;489;47.806;12.858;2024-03-08T08:39:16;12.80;;;8.20;;
1000;SDS011;489;47.806;12.858;2024-03-08T08:41:17;13.27;;;8.40;;
1000;SDS011;489;47.806;12.858;2024-03-08T08:43:19;12.47;;;7.87;;
1000;SDS011;489;47.806;12.858;2024-03-08T08:45:21;13.27;;;8.47;;
1000;SDS011;489;47.806;12.858;2024-03-08T08:47:23;12.40;;;8.27;;
1000;SDS011;489;47.806;12.858;2024-03-08T08:49:24;13.53;;;8.63;;
1000;SDS011;489;47.806;12.858;2024-03-08T08:51:26;11.00;;;7.80;;
1000;SDS011;489;47.806;12.858;2024-03-08T08:53:29;11.73;;;7.90;;
1000;SDS011;489;47.806;12.858;2024-03-08T08:55:31;10.43;;;7.20;;
1000;SDS011;489;47.806;12.858;2024-03-08T08:57:36;13.10;;;8.70;;
1000;SDS011;489;47.806;12.858;2024-03-08T08:59:38;11.47;;;8.87;;
1000;SDS011;489;47.806;12.858;2024-03-08T09:01:40;13.40;;;9.00;;
1000;SDS011;489;47.806;12.858;2024-03-08T09:03:42;13.50;;;8.40;;
1000;SDS011;489;47.806;12.858;2024-03-08T09:05:47;13.47;;;8.43;;
1000;SDS011;489;47.806;12.858;2024-03-08T09:07:49;11.40;;;7.97;;
1000;SDS011;489;47.806;12.858;2024-03-08T09:09:51;13.60;;;8.20;;
1000;SDS011;489;47.806;12.858;2024-03-08T09:11:58;13.20;;;8.27;;
1000;SDS011;489;47.806;12.858;2024-03-08T09:14:01;12.77;;;8.13;;
1000;SDS011;489;47.806;12.858;2024-03-08T09:16:03;12.57;;;8.47;;
1000;SDS011;489;47.806;12.858;2024-03-08T09:18:07;12.93;;;9.37;;
1000;SDS011;489;47.806;12.858;2024-03-08T09:20:09;13.33;;;8.63;;
1000;SDS011;489;47.806;12.858;2024-03-08T09:22:15;10.80;;;8.20;;
1000;SDS011;489;47.806;12.858;2024-03-08T09:24:17;13.07;;;9.20;;
1000;SDS011;489;47.806;12.858;2024-03-08T09:26:19;12.00;;;8.47;;
1000;SDS011;489;47.806;12.858;2024-03-08T09:28:21;11.47;;;8.83;;
1000;SDS011;489;47.806;12.858;2024-03-08T09:30:23;14.40;;;8.93;;
1000;SDS011;489;47.806;12.858;2024-03-08T09:32:25;14.53;;;9.17;;
1000;SDS011;489;47.806;12.858;2024-03-08T09:34:27;11.37;;;8.50;;
1000;SDS011;489;47.806;12.858;2024-03-08T09:36:30;10.07;;;7.77;;
1000;SDS011;489;47.806;12.858;2024-03-08T09:38:33;13.00;;;8.00;;
1000;SDS011;489;47.806;12.858;2024-03-08T09:40:35;10.83;;;8.20;;
1000;SDS011;489;47.806;12.858;2024-03-08T09:42:37;11.43;;;8.53;;
1000;SDS011;489;47.806;12.858;2024-03-08T09:44:41;13.53;;;8.83;;
1000;SDS011;489;47.806;12.858;2024-03-08T09:46:46;10.43;;;8.30;;
1000;SDS011;489;47.806;12.858;2024-03-08T09:48:48;11.03;;;8.00;;
1000;SDS011;489;47.806;12.858;2024-03-08T09:50:51;10.30;;;8.17;;
1000;SDS011;489;47.806;12.858;2024-03-08T09:52:55;12.43;;;9.23;;
1000;SDS011;489;47.806;12.858;2024-03-08T09:54:57;10.20;;;8.60;;
1000;SDS011;489;47.806;12.858;2024-03-08T09:57:01;12.50;;;8.10;;
1000;SDS011;489;47.806;12.858;2024-03-08T09:59:05;11.07;;;8.47;;
1000;SDS011;489;47.806;12.858;2024-03-08T10:01:42;11.17;;;7.73;;
1000;SDS011;489;47.806;12.858;2024-03-08T10:03:46;11.03;;;8.47;;
1000;SDS011;489;47.806;12.858;2024-03-08T10:05:49;10.60;;;9.20;;
1000;SDS011;489;47.806;12.858;2024-03-08T10:07:51;16.43;;;8.60;;
1000;SDS011;489;47.806;12.858;2024-03-08T10:09:53;11.53;;;8.37;;
1000;SDS011;489;47.806;12.858;2024-03-08T10:11:55;9.93;;;7.83;;
1000;SDS011;489;47.806;12.858;2024-03-08T10:13:57;9.90;;;8.07;;
1000;SDS011;489;47.806;12.858;2024-03-08T10:15:59;10.50;;;8.20;;
1000;SDS011;489;47.806;12.858;2024-03-08T10:18:03;10.30;;;8.37;;
1000;SDS011;489;47.806;12.858;2024-03-08T10:20:04;11.07;;;7.97;;
1000;SDS011;489;47.806;12.858;2024-03-08T10:22:15;8.93;;;8.03;;
1000;SDS011;489;47.806;12.858;2024-03-08T10:24:17;10.03;;;8.00;;
1000;SDS011;489;47.806;12.858;2024-03-08T10:26:19;10.70;;;8.53;;
1000;SDS011;489;47.806;12.858;2024-03-08T10:28:22;9.23;;;7.80;;
1000;SDS011;489;47.806;12.858;2024-03-08T10:30:25;10.63;;;8.00;;
1000;SDS011;489;47.806;12.858;2024-03-08T10:32:28;11.00;;;8.07;;
1000;SDS011;489;47.806;12.858;2024-03-08T10:34:31;13.37;;;9.00;;
1000;SDS011;489;47.806;12.858;2024-03-08T10:36:33;13.70;;;8.80;;
1000;SDS011;489;47.806;12.858;2024-03-08T10:38:39;10.67;;;8.40;;
1000;SDS011;489;47.806;12.858;2024-03-08T10:40:42;13.23;;;8.67;;
1000;SDS011;489;47.806;12.858;2024-03-08T10:42:51;12.00;;;8.93;;
1000;SDS011;489;47.806;12.858;2024-03-08T10:44:57;11.37;;;8.20;;
1000;SDS011;489;47.806;12.858;2024-03-08T10:47:08;9.80;;;8.00;;
1000;SDS011;489;47.806;12.858;2024-03-08T10:49:17;13.27;;;8.77;;
1000;SDS011;489;47.806;12.858;2024-03-08T10:51:20;11.60;;;9.27;;
1000;SDS011;489;47.806;12.858;2024-03-08T10:53:23;11.50;;;8.63;;
1000;SDS011;489;47.806;12.858;2024-03-08T10:55:26;10.97;;;8.60;;
1000;SDS011;489;47.806;12.858;2024-03-08T10:57:29;11.93;;;8.80;;
1000;SDS011;489;47.806;12.858;2024-03-08T10:59:31;10.97;;;8.60;;
1000;SDS011;489;47.806;12.858;2024-03-08T11:01:34;11.80;;;9.17;;
1000;SDS011;489;47.806;12.858;2024-03-08T11:03:49;13.87;;;9.90;;
1000;SDS011;489;47.806;12.858;2024-03-08T11:05:53;12.77;;;9.30;;
1000;SDS011;489;47.806;12.858;2024-03-08T11:07:56;13.10;;;9.30;;
1000;SDS011;489;47.806;12.858;2024-03-08T11:09:58;13.23;;;10.00;;
1000;SDS011;489;47.806;12.858;2024-03-08T11:12:20;13.83;;;10.03;;
1000;SDS011;489;47.806;12.858;2024-03-08T11:16:49;16.17;;;11.57;;
1000;SDS011;489;47.806;12.858;2024-03-08T11:18:53;15.20;;;11.10;;
1000;SDS011;489;47.806;12.858;2024-03-08T11:20:54;15.10;;;10.73;;
1000;SDS011;489;47.806;12.858;2024-03-08T11:23:01;14.80;;;12.10;;
1000;SDS011;489;47.806;12.858;2024-03-08T11:25:08;17.43;;;12.03;;
1000;SDS011;489;47.806;12.858;2024-03-08T11:27:11;14.43;;;10.73;;
1000;SDS011;489;47.806;12.858;2024-03-08T11:29:32;19.90;;;12.87;;
1000;SDS011;489;47.806;12.858;2024-03-08T11:31:37;15.53;;;11.60;;
1000;SDS011;489;47.806;12.858;2024-03-08T11:33:40;16.30;;;11.57;;
1000;SDS011;489;47.806;12.858;2024-03-08T11:35:44;13.90;;;10.90;;
1000;SDS011;489;47.806;12.858;2024-03-08T11:37:46;13.40;;;10.37;;
1000;SDS011;489;47.806;12.858;2024-03-08T11:39:49;16.53;;;11.50;;
1000;SDS011;489;47.806;12.858;2024-03-08T11:41:52;14.70;;;11.60;;
1000;SDS011;489;47.806;12.858;2024-03-08T11:44:01;15.97;;;11.83;;
1000;SDS011;489;47.806;12.858;2024-03-08T11:46:07;15.03;;;11.97;;
1000;SDS011;489;47.806;12.858;2024-03-08T11:48:09;15.60;;;11.90;;
1000;SDS011;489;47.806;12.858;2024-03-08T11:50:13;15.63;;;12.23;;
1000;SDS011;489;47.806;12.858;2024-03-08T11:52:16;16.17;;;12.07;;
1000;SDS011;489;47.806;12.858;2024-03-08T11:54:18;16.80;;;12.27;;
1000;SDS011;489;47.806;12.858;2024-03-08T11:56:23;16.50;;;11.00;;
1000;SDS011;489;47.806;12.858;2024-03-08T11:58:24;17.33;;;12.37;;
1000;SDS011;489;47.806;12.858;2024-03-08T12:00:28;13.67;;;11.73;;
1000;SDS011;489;47.806;12.858;2024-03-08T12:02:35;11.77;;;10.57;;
1000;SDS011;489;47.806;12.858;2024-03-08T12:04:38;13.60;;;12.10;;
1000;SDS011;489;47.806;12.858;2024-03-08T12:06:41;14.27;;;12.00;;
1000;SDS011;489;47.806;12.858;2024-03-08T12:08:45;14.17;;;11.17;;
1000;SDS011;489;47.806;12.858;2024-03-08T12:10:49;13.80;;;11.03;;
1000;SDS011;489;47.806;12.858;2024-03-08T12:12:53;13.73;;;11.33;;
1000;SDS011;489;47.806;12.858;2024-03-08T12:14:56;15.57;;;10.37;;
1000;SDS011;489;47.806;12.858;2024-03-08T12:16:58;13.63;;;11.47;;
1000;SDS011;489;47.806;12.858;2024-03-08T12:19:01;13.33;;;10.93;;
1000;SDS011;489;47.806;12.858;2024-03-08T12:21:04;13.20;;;11.63;;
1000;SDS011;489;47.806;12.858;2024-03-08T12:23:07;14.30;;;11.40;;
1000;SDS011;489;47.806;12.858;2024-03-08T12:25:15;12.70;;;11.07;;
1000;SDS011;489;47.806;12.858;2024-03-08T12:27:17;12.40;;;10.80;;
1000;SDS011;489;47.806;12.858;2024-03-08T12:29:21;12.83;;;11.13;;
1000;SDS011;489;47.806;12.858;2024-03-08T12:31:28;12.27;;;10.07;;
1000;SDS011;489;47.806;12.858;2024-03-08T12:33:29;12.13;;;10.83;;
1000;SDS011;489;47.806;12.858;2024-03-08T12:35:31;12.80;;;10.73;;